sensor_id;sensor_type;location;lat;lon;timestamp;pressure;altitude;pressure_sealevel;temperature;humidity
69411;BME280;56604;48.652;9.194;2023-09-07T00:01:43;96583.78;;;19.15;58.82
69411;BME280;56604;48.652;9.194;2023-09-07T00:04:08;96582.03;;;19.10;58.49
69411;BME280;56604;48.652;9.194;2023-09-07T00:06:34;96576.06;;;19.00;59.41
69411;BME280;56604;48.652;9.194;2023-09-07T00:09:00;96582.97;;;19.01;59.31
69411;BME280;56604;48.652;9.194;2023-09-07T00:11:25;96584.78;;;19.05;59.05
69411;BME280;56604;48.652;9.194;2023-09-07T00:13:51;96579.25;;;19.02;59.26
69411;BME280;56604;48.652;9.194;2023-09-07T00:16:16;96577.28;;;19.07;58.96
69411;BME280;56604;48.652;9.194;2023-09-07T00:18:41;96579.50;;;18.86;59.92
69411;BME280;56604;48.652;9.194;2023-09-07T00:21:07;96586.16;;;18.70;60.48
69411;BME280;56604;48.652;9.194;2023-09-07T00:23:32;96575.78;;;18.69;61.77
69411;BME280;56604;48.652;9.194;2023-09-07T00:25:57;96578.13;;;18.56;61.81
69411;BME280;56604;48.652;9.194;2023-09-07T00:28:23;96583.81;;;18.50;61.80
69411;BME280;56604;48.652;9.194;2023-09-07T00:30:48;96576.00;;;18.39;63.20
69411;BME280;56604;48.652;9.194;2023-09-07T00:33:14;96584.94;;;18.30;62.69
69411;BME280;56604;48.652;9.194;2023-09-07T00:35:39;96578.56;;;18.12;63.95
69411;BME280;56604;48.652;9.194;2023-09-07T00:38:04;96574.25;;;18.16;62.77
69411;BME280;56604;48.652;9.194;2023-09-07T00:40:30;96569.06;;;18.25;62.56
69411;BME280;56604;48.652;9.194;2023-09-07T00:42:55;96582.50;;;18.33;62.24
69411;BME280;56604;48.652;9.194;2023-09-07T00:45:21;96591.16;;;18.58;61.26
69411;BME280;56604;48.652;9.194;2023-09-07T00:47:47;96583.59;;;18.65;61.21
69411;BME280;56604;48.652;9.194;2023-09-07T00:50:12;96581.56;;;18.76;60.97
69411;BME280;56604;48.652;9.194;2023-09-07T00:52:42;96577.22;;;18.80;60.48
69411;BME280;56604;48.652;9.194;2023-09-07T00:55:08;96578.53;;;18.82;60.83
69411;BME280;56604;48.652;9.194;2023-09-07T00:57:34;96579.91;;;18.80;60.85
69411;BME280;56604;48.652;9.194;2023-09-07T00:59:59;96573.88;;;18.74;61.03
69411;BME280;56604;48.652;9.194;2023-09-07T01:02:25;96576.38;;;18.65;60.92
69411;BME280;56604;48.652;9.194;2023-09-07T01:04:51;96582.69;;;18.70;61.21
69411;BME280;56604;48.652;9.194;2023-09-07T01:07:20;96581.91;;;18.69;61.52
69411;BME280;56604;48.652;9.194;2023-09-07T01:09:52;96576.81;;;18.73;61.45
69411;BME280;56604;48.652;9.194;2023-09-07T01:12:18;96567.53;;;18.70;61.16
69411;BME280;56604;48.652;9.194;2023-09-07T01:14:43;96575.59;;;18.65;61.58
69411;BME280;56604;48.652;9.194;2023-09-07T01:17:09;96569.84;;;18.58;61.75
69411;BME280;56604;48.652;9.194;2023-09-07T01:19:35;96574.69;;;18.56;61.86
69411;BME280;56604;48.652;9.194;2023-09-07T01:22:01;96569.44;;;18.51;62.22
69411;BME280;56604;48.652;9.194;2023-09-07T01:24:27;96573.63;;;18.38;62.49
69411;BME280;56604;48.652;9.194;2023-09-07T01:26:56;96576.09;;;18.34;62.79
69411;BME280;56604;48.652;9.194;2023-09-07T01:29:22;96567.38;;;18.29;62.96
69411;BME280;56604;48.652;9.194;2023-09-07T01:31:47;96568.09;;;18.34;63.27
69411;BME280;56604;48.652;9.194;2023-09-07T01:34:13;96572.91;;;18.32;63.58
69411;BME280;56604;48.652;9.194;2023-09-07T01:36:38;96565.03;;;18.27;63.38
69411;BME280;56604;48.652;9.194;2023-09-07T01:39:04;96561.84;;;18.25;63.84
69411;BME280;56604;48.652;9.194;2023-09-07T01:41:31;96558.28;;;18.16;63.65
69411;BME280;56604;48.652;9.194;2023-09-07T01:43:56;96557.56;;;18.10;64.07
69411;BME280;56604;48.652;9.194;2023-09-07T01:46:21;96557.25;;;18.12;64.41
69411;BME280;56604;48.652;9.194;2023-09-07T01:48:47;96566.34;;;18.11;64.47
69411;BME280;56604;48.652;9.194;2023-09-07T01:51:12;96561.22;;;18.14;64.14
69411;BME280;56604;48.652;9.194;2023-09-07T01:53:37;96566.34;;;18.11;64.35
69411;BME280;56604;48.652;9.194;2023-09-07T01:56:03;96570.06;;;18.10;64.71
69411;BME280;56604;48.652;9.194;2023-09-07T01:58:28;96572.00;;;18.04;64.93
69411;BME280;56604;48.652;9.194;2023-09-07T02:00:57;96579.94;;;17.90;65.06
69411;BME280;56604;48.652;9.194;2023-09-07T02:03:23;96581.00;;;17.89;65.13
69411;BME280;56604;48.652;9.194;2023-09-07T02:05:48;96574.47;;;17.82;65.36
69411;BME280;56604;48.652;9.194;2023-09-07T02:08:13;96573.19;;;17.74;65.95
69411;BME280;56604;48.652;9.194;2023-09-07T02:10:38;96571.06;;;17.76;66.16
69411;BME280;56604;48.652;9.194;2023-09-07T02:13:04;96565.28;;;17.69;66.52
69411;BME280;56604;48.652;9.194;2023-09-07T02:15:29;96566.94;;;17.65;66.91
69411;BME280;56604;48.652;9.194;2023-09-07T02:17:55;96567.44;;;17.67;66.54
69411;BME280;56604;48.652;9.194;2023-09-07T02:20:20;96566.28;;;17.73;66.19
69411;BME280;56604;48.652;9.194;2023-09-07T02:22:45;96562.13;;;17.67;66.22
69411;BME280;56604;48.652;9.194;2023-09-07T02:25:11;96576.34;;;17.57;67.02
69411;BME280;56604;48.652;9.194;2023-09-07T02:27:36;96568.47;;;17.47;67.79
69411;BME280;56604;48.652;9.194;2023-09-07T02:30:05;96566.13;;;17.45;67.51
69411;BME280;56604;48.652;9.194;2023-09-07T02:32:34;96565.38;;;17.40;67.63
69411;BME280;56604;48.652;9.194;2023-09-07T02:34:59;96566.81;;;17.32;67.66
69411;BME280;56604;48.652;9.194;2023-09-07T02:37:24;96557.31;;;17.26;68.11
69411;BME280;56604;48.652;9.194;2023-09-07T02:39:50;96565.81;;;17.28;68.77
69411;BME280;56604;48.652;9.194;2023-09-07T02:42:15;96562.09;;;17.24;68.84
69411;BME280;56604;48.652;9.194;2023-09-07T02:44:40;96568.28;;;17.19;69.47
69411;BME280;56604;48.652;9.194;2023-09-07T02:47:06;96559.50;;;17.19;69.32
69411;BME280;56604;48.652;9.194;2023-09-07T02:49:31;96565.69;;;17.14;69.49
69411;BME280;56604;48.652;9.194;2023-09-07T02:51:56;96554.53;;;17.12;69.79
69411;BME280;56604;48.652;9.194;2023-09-07T02:54:22;96557.75;;;17.09;69.98
69411;BME280;56604;48.652;9.194;2023-09-07T02:56:48;96560.19;;;17.05;70.04
69411;BME280;56604;48.652;9.194;2023-09-07T02:59:13;96553.81;;;17.06;70.13
69411;BME280;56604;48.652;9.194;2023-09-07T03:01:39;96562.84;;;17.05;70.29
69411;BME280;56604;48.652;9.194;2023-09-07T03:04:05;96554.94;;;17.00;70.50
69411;BME280;56604;48.652;9.194;2023-09-07T03:06:30;96551.19;;;17.01;70.13
69411;BME280;56604;48.652;9.194;2023-09-07T03:08:56;96546.00;;;16.91;70.30
69411;BME280;56604;48.652;9.194;2023-09-07T03:11:22;96548.25;;;16.79;71.21
69411;BME280;56604;48.652;9.194;2023-09-07T03:13:47;96539.78;;;16.77;71.48
69411;BME280;56604;48.652;9.194;2023-09-07T03:16:13;96550.28;;;16.87;71.45
69411;BME280;56604;48.652;9.194;2023-09-07T03:18:38;96542.94;;;16.79;71.66
69411;BME280;56604;48.652;9.194;2023-09-07T03:21:03;96539.22;;;16.80;71.64
69411;BME280;56604;48.652;9.194;2023-09-07T03:23:29;96537.63;;;16.79;71.53
69411;BME280;56604;48.652;9.194;2023-09-07T03:25:56;96548.78;;;16.76;71.81
69411;BME280;56604;48.652;9.194;2023-09-07T03:28:21;96539.22;;;16.75;71.78
69411;BME280;56604;48.652;9.194;2023-09-07T03:30:46;96548.31;;;16.69;71.93
69411;BME280;56604;48.652;9.194;2023-09-07T03:33:12;96542.50;;;16.67;72.13
69411;BME280;56604;48.652;9.194;2023-09-07T03:35:37;96548.97;;;16.55;71.92
69411;BME280;56604;48.652;9.194;2023-09-07T03:38:03;96546.34;;;16.50;72.25
69411;BME280;56604;48.652;9.194;2023-09-07T03:40:28;96544.78;;;16.49;72.18
69411;BME280;56604;48.652;9.194;2023-09-07T03:42:54;96552.13;;;16.57;72.37
69411;BME280;56604;48.652;9.194;2023-09-07T03:45:19;96543.66;;;16.55;72.45
69411;BME280;56604;48.652;9.194;2023-09-07T03:47:44;96539.22;;;16.51;72.47
69411;BME280;56604;48.652;9.194;2023-09-07T03:50:09;96540.03;;;16.46;72.33
69411;BME280;56604;48.652;9.194;2023-09-07T03:52:36;96539.25;;;16.46;72.11
69411;BME280;56604;48.652;9.194;2023-09-07T03:55:01;96543.25;;;16.43;73.02
69411;BME280;56604;48.652;9.194;2023-09-07T03:57:27;96544.28;;;16.42;72.73
69411;BME280;56604;48.652;9.194;2023-09-07T03:59:53;96539.53;;;16.39;73.00
69411;BME280;56604;48.652;9.194;2023-09-07T04:02:20;96542.94;;;16.45;72.90
69411;BME280;56604;48.652;9.194;2023-09-07T04:04:50;96535.84;;;16.40;73.22
69411;BME280;56604;48.652;9.194;2023-09-07T04:07:15;96534.50;;;16.42;73.64
69411;BME280;56604;48.652;9.194;2023-09-07T04:09:41;96545.16;;;16.37;74.01
69411;BME280;56604;48.652;9.194;2023-09-07T04:12:07;96544.41;;;16.32;74.64
69411;BME280;56604;48.652;9.194;2023-09-07T04:14:32;96536.97;;;16.34;74.86
69411;BME280;56604;48.652;9.194;2023-09-07T04:16:58;96537.81;;;16.24;74.67
69411;BME280;56604;48.652;9.194;2023-09-07T04:19:23;96542.34;;;16.24;74.83
69411;BME280;56604;48.652;9.194;2023-09-07T04:21:48;96543.91;;;16.25;75.21
69411;BME280;56604;48.652;9.194;2023-09-07T04:24:14;96546.00;;;16.28;75.43
69411;BME280;56604;48.652;9.194;2023-09-07T04:26:39;96543.91;;;16.25;75.46
69411;BME280;56604;48.652;9.194;2023-09-07T04:29:06;96537.56;;;16.26;75.65
69411;BME280;56604;48.652;9.194;2023-09-07T04:31:32;96538.91;;;16.23;75.65
69411;BME280;56604;48.652;9.194;2023-09-07T04:33:57;96541.31;;;16.19;75.92
69411;BME280;56604;48.652;9.194;2023-09-07T04:36:22;96538.38;;;16.21;75.94
69411;BME280;56604;48.652;9.194;2023-09-07T04:38:48;96532.31;;;16.15;76.25
69411;BME280;56604;48.652;9.194;2023-09-07T04:41:14;96535.75;;;16.16;76.24
69411;BME280;56604;48.652;9.194;2023-09-07T04:43:41;96534.97;;;16.15;76.67
69411;BME280;56604;48.652;9.194;2023-09-07T04:46:11;96535.50;;;16.17;76.67
69411;BME280;56604;48.652;9.194;2023-09-07T04:48:36;96534.69;;;16.17;76.95
69411;BME280;56604;48.652;9.194;2023-09-07T04:51:03;96535.53;;;16.12;77.10
69411;BME280;56604;48.652;9.194;2023-09-07T04:53:30;96537.09;;;16.13;77.15
69411;BME280;56604;48.652;9.194;2023-09-07T04:55:56;96536.53;;;16.16;77.01
69411;BME280;56604;48.652;9.194;2023-09-07T04:58:22;96534.19;;;16.15;77.26
69411;BME280;56604;48.652;9.194;2023-09-07T05:00:47;96537.00;;;16.29;76.54
69411;BME280;56604;48.652;9.194;2023-09-07T05:03:13;96531.03;;;16.42;76.38
69411;BME280;56604;48.652;9.194;2023-09-07T05:05:38;96533.16;;;16.45;76.03
69411;BME280;56604;48.652;9.194;2023-09-07T05:08:05;96537.28;;;16.56;75.41
69411;BME280;56604;48.652;9.194;2023-09-07T05:10:33;96540.00;;;16.80;74.53
69411;BME280;56604;48.652;9.194;2023-09-07T05:12:58;96543.19;;;17.06;73.40
69411;BME280;56604;48.652;9.194;2023-09-07T05:15:24;96540.69;;;17.39;72.21
69411;BME280;56604;48.652;9.194;2023-09-07T05:17:49;96552.13;;;17.77;71.13
69411;BME280;56604;48.652;9.194;2023-09-07T05:20:14;96548.88;;;18.05;69.54
69411;BME280;56604;48.652;9.194;2023-09-07T05:22:40;96547.84;;;18.85;67.10
69411;BME280;56604;48.652;9.194;2023-09-07T05:25:06;96554.38;;;19.20;66.05
69411;BME280;56604;48.652;9.194;2023-09-07T05:27:31;96551.41;;;19.36;66.14
69411;BME280;56604;48.652;9.194;2023-09-07T05:29:57;96554.31;;;20.12;63.78
69411;BME280;56604;48.652;9.194;2023-09-07T05:32:22;96555.63;;;20.59;62.63
69411;BME280;56604;48.652;9.194;2023-09-07T05:34:47;96561.69;;;20.74;60.48
69411;BME280;56604;48.652;9.194;2023-09-07T05:37:12;96559.41;;;20.58;60.64
69411;BME280;56604;48.652;9.194;2023-09-07T05:39:38;96571.03;;;20.85;61.15
69411;BME280;56604;48.652;9.194;2023-09-07T05:42:03;96575.00;;;20.65;60.44
69411;BME280;56604;48.652;9.194;2023-09-07T05:44:29;96569.41;;;20.75;60.67
69411;BME280;56604;48.652;9.194;2023-09-07T05:46:54;96571.84;;;20.94;59.57
69411;BME280;56604;48.652;9.194;2023-09-07T05:49:19;96580.97;;;20.93;59.10
69411;BME280;56604;48.652;9.194;2023-09-07T05:51:44;96578.03;;;21.03;58.20
69411;BME280;56604;48.652;9.194;2023-09-07T05:54:10;96574.91;;;21.10;58.92
69411;BME280;56604;48.652;9.194;2023-09-07T05:56:35;96564.44;;;21.31;58.71
69411;BME280;56604;48.652;9.194;2023-09-07T05:59:00;96570.00;;;21.34;59.14
69411;BME280;56604;48.652;9.194;2023-09-07T06:01:26;96572.91;;;21.64;58.08
69411;BME280;56604;48.652;9.194;2023-09-07T06:03:51;96576.25;;;22.57;54.36
69411;BME280;56604;48.652;9.194;2023-09-07T06:06:16;96577.03;;;22.14;55.11
69411;BME280;56604;48.652;9.194;2023-09-07T06:08:42;96579.31;;;23.11;53.11
69411;BME280;56604;48.652;9.194;2023-09-07T06:11:07;96567.47;;;24.01;50.65
69411;BME280;56604;48.652;9.194;2023-09-07T06:13:32;96577.69;;;23.57;50.16
69411;BME280;56604;48.652;9.194;2023-09-07T06:15:58;96583.47;;;22.82;52.69
69411;BME280;56604;48.652;9.194;2023-09-07T06:18:25;96578.31;;;23.24;52.55
69411;BME280;56604;48.652;9.194;2023-09-07T06:20:50;96568.47;;;22.99;53.29
69411;BME280;56604;48.652;9.194;2023-09-07T06:23:16;96569.25;;;23.97;49.86
69411;BME280;56604;48.652;9.194;2023-09-07T06:25:41;96569.69;;;23.99;50.13
69411;BME280;56604;48.652;9.194;2023-09-07T06:28:06;96575.97;;;23.82;50.52
69411;BME280;56604;48.652;9.194;2023-09-07T06:30:32;96569.56;;;23.95;50.52
69411;BME280;56604;48.652;9.194;2023-09-07T06:32:57;96569.97;;;24.06;49.54
69411;BME280;56604;48.652;9.194;2023-09-07T06:35:22;96574.72;;;23.50;52.21
69411;BME280;56604;48.652;9.194;2023-09-07T06:37:48;96580.25;;;23.83;50.04
69411;BME280;56604;48.652;9.194;2023-09-07T06:40:13;96583.31;;;23.34;51.71
69411;BME280;56604;48.652;9.194;2023-09-07T06:42:40;96583.56;;;23.80;52.18
69411;BME280;56604;48.652;9.194;2023-09-07T06:45:06;96583.44;;;23.76;51.40
69411;BME280;56604;48.652;9.194;2023-09-07T06:47:32;96578.22;;;24.22;50.18
69411;BME280;56604;48.652;9.194;2023-09-07T06:49:57;96582.00;;;25.33;47.65
69411;BME280;56604;48.652;9.194;2023-09-07T06:52:23;96581.44;;;24.69;48.38
69411;BME280;56604;48.652;9.194;2023-09-07T06:54:52;96583.03;;;24.71;49.81
69411;BME280;56604;48.652;9.194;2023-09-07T06:57:18;96590.00;;;25.42;47.25
69411;BME280;56604;48.652;9.194;2023-09-07T06:59:43;96586.63;;;24.87;48.15
69411;BME280;56604;48.652;9.194;2023-09-07T07:02:09;96594.09;;;25.02;48.38
69411;BME280;56604;48.652;9.194;2023-09-07T07:04:34;96589.91;;;26.15;46.20
69411;BME280;56604;48.652;9.194;2023-09-07T07:07:00;96598.72;;;25.75;45.87
69411;BME280;56604;48.652;9.194;2023-09-07T07:09:29;96595.25;;;25.26;46.85
69411;BME280;56604;48.652;9.194;2023-09-07T07:11:55;96596.31;;;25.00;47.38
69411;BME280;56604;48.652;9.194;2023-09-07T07:14:20;96588.53;;;25.56;45.55
69411;BME280;56604;48.652;9.194;2023-09-07T07:16:45;96600.44;;;25.31;47.27
69411;BME280;56604;48.652;9.194;2023-09-07T07:19:10;96597.00;;;26.20;44.68
69411;BME280;56604;48.652;9.194;2023-09-07T07:21:36;96596.59;;;26.74;44.01
69411;BME280;56604;48.652;9.194;2023-09-07T07:24:01;96599.47;;;26.81;43.87
69411;BME280;56604;48.652;9.194;2023-09-07T07:26:26;96610.50;;;25.95;46.70
69411;BME280;56604;48.652;9.194;2023-09-07T07:28:52;96600.03;;;26.18;44.75
69411;BME280;56604;48.652;9.194;2023-09-07T07:31:17;96597.41;;;26.34;44.64
69411;BME280;56604;48.652;9.194;2023-09-07T07:33:42;96606.47;;;25.77;46.90
69411;BME280;56604;48.652;9.194;2023-09-07T07:36:08;96598.44;;;24.61;50.39
69411;BME280;56604;48.652;9.194;2023-09-07T07:38:34;96603.63;;;24.66;50.28
69411;BME280;56604;48.652;9.194;2023-09-07T07:41:00;96606.66;;;24.44;52.03
69411;BME280;56604;48.652;9.194;2023-09-07T07:43:26;96599.31;;;24.86;48.60
69411;BME280;56604;48.652;9.194;2023-09-07T07:45:54;96605.44;;;24.75;49.24
69411;BME280;56604;48.652;9.194;2023-09-07T07:48:19;96601.41;;;25.39;47.83
69411;BME280;56604;48.652;9.194;2023-09-07T07:50:45;96604.91;;;25.76;46.66
69411;BME280;56604;48.652;9.194;2023-09-07T07:53:10;96609.81;;;26.11;46.04
69411;BME280;56604;48.652;9.194;2023-09-07T07:55:36;96604.44;;;26.11;46.49
69411;BME280;56604;48.652;9.194;2023-09-07T07:58:06;96604.13;;;26.00;46.64
69411;BME280;56604;48.652;9.194;2023-09-07T08:00:38;96605.56;;;26.78;45.68
69411;BME280;56604;48.652;9.194;2023-09-07T08:03:04;96607.13;;;26.11;47.87
69411;BME280;56604;48.652;9.194;2023-09-07T08:05:32;96606.59;;;24.86;49.09
69411;BME280;56604;48.652;9.194;2023-09-07T08:07:58;96599.75;;;25.83;48.56
69411;BME280;56604;48.652;9.194;2023-09-07T08:10:23;96600.69;;;26.15;46.88
69411;BME280;56604;48.652;9.194;2023-09-07T08:12:53;96594.72;;;25.57;50.16
69411;BME280;56604;48.652;9.194;2023-09-07T08:15:18;96601.16;;;26.17;48.72
69411;BME280;56604;48.652;9.194;2023-09-07T08:17:46;96586.53;;;27.03;45.45
69411;BME280;56604;48.652;9.194;2023-09-07T08:20:12;96593.16;;;26.21;47.57
69411;BME280;56604;48.652;9.194;2023-09-07T08:22:38;96589.34;;;26.22;47.39
69411;BME280;56604;48.652;9.194;2023-09-07T08:25:06;96586.78;;;26.54;47.20
69411;BME280;56604;48.652;9.194;2023-09-07T08:27:32;96584.94;;;26.86;47.38
69411;BME280;56604;48.652;9.194;2023-09-07T08:29:57;96582.22;;;26.70;47.68
69411;BME280;56604;48.652;9.194;2023-09-07T08:32:22;96590.00;;;26.87;46.07
69411;BME280;56604;48.652;9.194;2023-09-07T08:34:48;96590.94;;;26.79;46.21
69411;BME280;56604;48.652;9.194;2023-09-07T08:37:13;96590.88;;;26.91;46.05
69411;BME280;56604;48.652;9.194;2023-09-07T08:39:38;96587.09;;;26.80;46.46
69411;BME280;56604;48.652;9.194;2023-09-07T08:42:07;96602.88;;;26.38;48.47
69411;BME280;56604;48.652;9.194;2023-09-07T08:44:33;96605.16;;;26.64;47.92
69411;BME280;56604;48.652;9.194;2023-09-07T08:46:59;96598.38;;;27.14;46.77
69411;BME280;56604;48.652;9.194;2023-09-07T08:49:26;96598.69;;;27.92;44.29
69411;BME280;56604;48.652;9.194;2023-09-07T08:51:53;96594.41;;;27.40;44.40
69411;BME280;56604;48.652;9.194;2023-09-07T08:54:19;96599.47;;;27.25;46.61
69411;BME280;56604;48.652;9.194;2023-09-07T08:56:45;96597.28;;;26.71;47.57
69411;BME280;56604;48.652;9.194;2023-09-07T08:59:11;96601.00;;;26.38;48.10
69411;BME280;56604;48.652;9.194;2023-09-07T09:01:37;96606.06;;;25.87;49.23
69411;BME280;56604;48.652;9.194;2023-09-07T09:04:03;96602.78;;;25.82;49.20
69411;BME280;56604;48.652;9.194;2023-09-07T09:06:28;96596.63;;;25.56;50.04
69411;BME280;56604;48.652;9.194;2023-09-07T09:08:56;96598.94;;;26.76;49.28
69411;BME280;56604;48.652;9.194;2023-09-07T09:11:23;96607.31;;;26.30;49.25
69411;BME280;56604;48.652;9.194;2023-09-07T09:13:49;96601.81;;;26.83;46.92
69411;BME280;56604;48.652;9.194;2023-09-07T09:16:15;96602.56;;;26.39;47.89
69411;BME280;56604;48.652;9.194;2023-09-07T09:19:08;96608.13;;;26.46;48.51
69411;BME280;56604;48.652;9.194;2023-09-07T09:21:34;96604.63;;;26.30;48.85
69411;BME280;56604;48.652;9.194;2023-09-07T09:23:59;96601.59;;;26.60;50.25
69411;BME280;56604;48.652;9.194;2023-09-07T09:26:25;96603.28;;;27.40;46.89
69411;BME280;56604;48.652;9.194;2023-09-07T09:28:50;96592.63;;;26.56;47.70
69411;BME280;56604;48.652;9.194;2023-09-07T09:31:17;96594.94;;;26.85;48.82
69411;BME280;56604;48.652;9.194;2023-09-07T09:33:47;96592.09;;;26.38;50.18
69411;BME280;56604;48.652;9.194;2023-09-07T09:36:13;96594.13;;;26.69;48.46
69411;BME280;56604;48.652;9.194;2023-09-07T09:38:39;96591.13;;;26.86;47.48
69411;BME280;56604;48.652;9.194;2023-09-07T09:41:05;96588.84;;;26.88;48.01
69411;BME280;56604;48.652;9.194;2023-09-07T09:43:31;96588.41;;;26.02;49.68
69411;BME280;56604;48.652;9.194;2023-09-07T09:45:57;96587.34;;;27.51;49.91
69411;BME280;56604;48.652;9.194;2023-09-07T09:48:25;96587.31;;;27.83;47.08
69411;BME280;56604;48.652;9.194;2023-09-07T09:50:52;96587.22;;;27.00;47.45
69411;BME280;56604;48.652;9.194;2023-09-07T09:53:18;96581.31;;;27.57;47.47
69411;BME280;56604;48.652;9.194;2023-09-07T09:55:49;96588.81;;;27.17;48.20
69411;BME280;56604;48.652;9.194;2023-09-07T09:58:16;96581.56;;;27.05;47.61
69411;BME280;56604;48.652;9.194;2023-09-07T10:00:46;96581.34;;;26.66;50.58
69411;BME280;56604;48.652;9.194;2023-09-07T10:03:22;96582.31;;;26.45;47.70
69411;BME280;56604;48.652;9.194;2023-09-07T10:05:51;96583.78;;;26.02;49.61
69411;BME280;56604;48.652;9.194;2023-09-07T10:08:18;96585.94;;;25.97;50.58
69411;BME280;56604;48.652;9.194;2023-09-07T10:10:47;96584.03;;;25.61;51.82
69411;BME280;56604;48.652;9.194;2023-09-07T10:13:28;96574.34;;;26.09;51.44
69411;BME280;56604;48.652;9.194;2023-09-07T10:16:05;96575.06;;;25.32;52.60
69411;BME280;56604;48.652;9.194;2023-09-07T10:18:35;96572.91;;;25.87;52.26
69411;BME280;56604;48.652;9.194;2023-09-07T10:21:01;96571.19;;;26.07;52.94
69411;BME280;56604;48.652;9.194;2023-09-07T10:26:03;96570.81;;;25.68;53.16
69411;BME280;56604;48.652;9.194;2023-09-07T10:28:29;96573.94;;;25.70;52.82
69411;BME280;56604;48.652;9.194;2023-09-07T10:31:03;96567.09;;;25.35;52.27
69411;BME280;56604;48.652;9.194;2023-09-07T10:33:33;96565.56;;;26.12;54.63
69411;BME280;56604;48.652;9.194;2023-09-07T10:36:00;96569.81;;;26.25;51.99
69411;BME280;56604;48.652;9.194;2023-09-07T10:38:26;96565.19;;;25.85;51.23
69411;BME280;56604;48.652;9.194;2023-09-07T10:40:59;96561.06;;;26.16;54.40
69411;BME280;56604;48.652;9.194;2023-09-07T10:43:33;96569.66;;;25.93;52.69
69411;BME280;56604;48.652;9.194;2023-09-07T10:45:59;96560.00;;;26.05;51.60
69411;BME280;56604;48.652;9.194;2023-09-07T10:48:26;96562.50;;;26.25;51.93
69411;BME280;56604;48.652;9.194;2023-09-07T10:50:53;96552.19;;;26.43;52.20
69411;BME280;56604;48.652;9.194;2023-09-07T10:53:27;96559.22;;;25.92;53.24
69411;BME280;56604;48.652;9.194;2023-09-07T10:55:53;96559.09;;;26.00;53.13
69411;BME280;56604;48.652;9.194;2023-09-07T10:58:35;96556.00;;;25.62;54.96
69411;BME280;56604;48.652;9.194;2023-09-07T11:01:04;96541.56;;;26.07;54.49
69411;BME280;56604;48.652;9.194;2023-09-07T11:03:29;96549.56;;;26.31;54.44
69411;BME280;56604;48.652;9.194;2023-09-07T11:08:33;96537.28;;;26.06;52.67
69411;BME280;56604;48.652;9.194;2023-09-07T11:10:59;96552.28;;;25.66;54.44
69411;BME280;56604;48.652;9.194;2023-09-07T11:13:25;96544.06;;;25.75;54.23
69411;BME280;56604;48.652;9.194;2023-09-07T11:15:58;96551.72;;;25.61;54.83
69411;BME280;56604;48.652;9.194;2023-09-07T11:18:25;96541.97;;;25.44;54.68
69411;BME280;56604;48.652;9.194;2023-09-07T11:20:52;96536.94;;;25.42;54.42
69411;BME280;56604;48.652;9.194;2023-09-07T11:23:18;96536.81;;;25.39;56.28
69411;BME280;56604;48.652;9.194;2023-09-07T11:25:46;96537.59;;;25.51;56.14
69411;BME280;56604;48.652;9.194;2023-09-07T11:28:11;96532.34;;;25.18;55.65
69411;BME280;56604;48.652;9.194;2023-09-07T11:30:37;96531.66;;;25.46;54.97
69411;BME280;56604;48.652;9.194;2023-09-07T11:33:05;96525.38;;;25.54;54.15
69411;BME280;56604;48.652;9.194;2023-09-07T11:35:31;96525.34;;;25.66;54.75
69411;BME280;56604;48.652;9.194;2023-09-07T11:37:56;96523.66;;;25.74;54.14
69411;BME280;56604;48.652;9.194;2023-09-07T11:40:24;96520.75;;;25.67;54.66
69411;BME280;56604;48.652;9.194;2023-09-07T11:42:49;96524.16;;;26.04;57.40
69411;BME280;56604;48.652;9.194;2023-09-07T11:45:14;96525.44;;;25.94;54.98
69411;BME280;56604;48.652;9.194;2023-09-07T11:47:40;96518.72;;;25.88;53.67
69411;BME280;56604;48.652;9.194;2023-09-07T11:50:06;96523.75;;;26.18;57.99
69411;BME280;56604;48.652;9.194;2023-09-07T11:52:32;96523.38;;;26.03;54.43
69411;BME280;56604;48.652;9.194;2023-09-07T11:54:57;96519.03;;;25.87;55.37
69411;BME280;56604;48.652;9.194;2023-09-07T11:57:23;96515.75;;;26.06;54.88
69411;BME280;56604;48.652;9.194;2023-09-07T11:59:48;96521.97;;;26.22;54.18
69411;BME280;56604;48.652;9.194;2023-09-07T12:02:13;96519.66;;;26.36;53.47
69411;BME280;56604;48.652;9.194;2023-09-07T12:04:40;96514.00;;;26.85;56.49
69411;BME280;56604;48.652;9.194;2023-09-07T12:07:05;96517.59;;;26.45;52.70
69411;BME280;56604;48.652;9.194;2023-09-07T12:09:31;96506.88;;;26.33;52.35
69411;BME280;56604;48.652;9.194;2023-09-07T12:11:56;96519.38;;;26.54;54.19
69411;BME280;56604;48.652;9.194;2023-09-07T12:14:21;96511.22;;;26.38;52.58
69411;BME280;56604;48.652;9.194;2023-09-07T12:16:47;96508.25;;;26.27;52.35
69411;BME280;56604;48.652;9.194;2023-09-07T12:19:13;96513.03;;;26.34;52.78
69411;BME280;56604;48.652;9.194;2023-09-07T12:21:38;96504.34;;;26.40;52.38
69411;BME280;56604;48.652;9.194;2023-09-07T12:24:03;96498.56;;;26.54;52.15
69411;BME280;56604;48.652;9.194;2023-09-07T12:26:29;96502.78;;;26.39;52.40
69411;BME280;56604;48.652;9.194;2023-09-07T12:28:54;96506.06;;;26.61;52.18
69411;BME280;56604;48.652;9.194;2023-09-07T12:31:20;96493.75;;;26.47;51.53
69411;BME280;56604;48.652;9.194;2023-09-07T12:33:45;96500.94;;;26.72;51.97
69411;BME280;56604;48.652;9.194;2023-09-07T12:36:10;96492.56;;;26.61;51.52
69411;BME280;56604;48.652;9.194;2023-09-07T12:38:37;96496.00;;;26.45;50.64
69411;BME280;56604;48.652;9.194;2023-09-07T12:41:02;96496.88;;;26.50;50.58
69411;BME280;56604;48.652;9.194;2023-09-07T12:43:28;96497.88;;;26.57;50.08
69411;BME280;56604;48.652;9.194;2023-09-07T12:45:53;96494.06;;;26.58;49.40
69411;BME280;56604;48.652;9.194;2023-09-07T12:48:19;96493.91;;;26.67;49.02
69411;BME280;56604;48.652;9.194;2023-09-07T12:50:45;96495.00;;;26.66;49.65
69411;BME280;56604;48.652;9.194;2023-09-07T12:53:10;96490.84;;;26.68;50.57
69411;BME280;56604;48.652;9.194;2023-09-07T12:55:35;96492.16;;;26.75;49.31
69411;BME280;56604;48.652;9.194;2023-09-07T12:58:01;96491.03;;;26.91;49.43
69411;BME280;56604;48.652;9.194;2023-09-07T13:00:27;96492.16;;;26.90;47.59